Joe - Verification

METAR KLAF

KLAF 040654Z AUTO 05009G15KT 10SM -RA BKN085 OVC110 12/08 A2984 RMK AO2 RAB43 SLP100 P0000 T01170078 KLAF 040554Z AUTO 03007KT 10SM SCT110 12/08 A2987 RMK AO2 SLP109 T01220078 10267 20122 56004 KLAF 040454Z AUTO 30004KT 10SM SCT100 13/08 A2987 RMK AO2 SLP111 T01280083 402940106 KLAF 040354Z AUTO 34006KT 10SM BKN095 13/07 A2987 RMK AO2 PRESRR SLP112 T01330072 KLAF 040254Z AUTO 00000KT 10SM BKN095 13/08 A2988 RMK AO2 LTG DSNT N TSB21E39 SLP116 T01280078 51035 KLAF 040227Z AUTO 02006KT 10SM TS BKN090 13/07 A2987 RMK AO2 LTG DSNT N TSB21 KLAF 040245Z AUTO 36005KT 10SM BKN095 13/07 A2988 RMK AO2 LTG DSNT N TSB21E39 KLAF 040154Z AUTO 01008KT 10SM BKN080 OVC100 13/06 A2987 RMK AO2 LTG DSNT N AND NW TSB00E15 SLP112 T01330061 KLAF 040106Z AUTO 36015G20KT 10SM VCTS SCT075 16/07 A2983 RMK AO2 LTG DSNT NW TSB00 PRESRR KLAF 040121Z AUTO 35009G22KT 10SM FEW080 14/06 A2984 RMK AO2 LTG DSNT N AND NW TSB00E15 KLAF 040054Z 02008G15KT 10SM FEW075 16/07 A2980 RMK AO2 WSHFT 0004 LTG DSNT NW SLP090 T01610072 KLAF 040024Z 02014KT 10SM SCT070 BKN095 19/09 A2979 RMK AO2 WSHFT 0004 KLAF 032354Z 24003KT 10SM FEW075 27/15 A2977 RMK AO2 SLP079 T02670150 10294 20267 53002 KLAF 032254Z 00000KT 10SM CLR 28/15 A2976 RMK AO2 SLP075 T02830150 KLAF 032154Z 23005KT 10SM CLR 28/13 A2976 RMK AO2 SLP074 T02830133 KLAF 032054Z 19004KT 10SM CLR 29/14 A2977 RMK AO2 SLP076 T02890139 58023

OO UTC Surface Obs

01 UTC Surface Obs

Frontogenesis 00 UTC